sensor_id;sensor_type;location;lat;lon;timestamp;temperature;humidity
43151;DHT22;28755;51.478;5.702;2024-01-25T00:01:42;9.30;99.90
43151;DHT22;28755;51.478;5.702;2024-01-25T00:04:07;9.30;99.90
43151;DHT22;28755;51.478;5.702;2024-01-25T00:06:33;9.30;99.90
43151;DHT22;28755;51.478;5.702;2024-01-25T00:08:59;9.30;99.90
43151;DHT22;28755;51.478;5.702;2024-01-25T00:11:26;9.20;99.90
43151;DHT22;28755;51.478;5.702;2024-01-25T00:13:51;9.20;99.90
43151;DHT22;28755;51.478;5.702;2024-01-25T00:16:17;9.10;99.90
43151;DHT22;28755;51.478;5.702;2024-01-25T00:18:43;9.10;99.90
43151;DHT22;28755;51.478;5.702;2024-01-25T00:21:08;9.00;99.90
43151;DHT22;28755;51.478;5.702;2024-01-25T00:23:34;9.00;99.90
43151;DHT22;28755;51.478;5.702;2024-01-25T00:25:59;9.00;99.90
43151;DHT22;28755;51.478;5.702;2024-01-25T00:28:26;9.00;99.90
43151;DHT22;28755;51.478;5.702;2024-01-25T00:30:51;9.00;99.90
43151;DHT22;28755;51.478;5.702;2024-01-25T00:33:17;8.90;99.90
43151;DHT22;28755;51.478;5.702;2024-01-25T00:35:43;8.80;99.90
43151;DHT22;28755;51.478;5.702;2024-01-25T00:38:09;8.80;99.90
43151;DHT22;28755;51.478;5.702;2024-01-25T00:40:35;8.70;99.90
43151;DHT22;28755;51.478;5.702;2024-01-25T00:43:01;8.70;99.90
43151;DHT22;28755;51.478;5.702;2024-01-25T00:45:27;8.60;99.90
43151;DHT22;28755;51.478;5.702;2024-01-25T00:47:53;8.60;99.90
43151;DHT22;28755;51.478;5.702;2024-01-25T00:50:19;8.60;99.90
43151;DHT22;28755;51.478;5.702;2024-01-25T00:52:47;8.60;99.90
43151;DHT22;28755;51.478;5.702;2024-01-25T00:55:14;8.50;99.90
43151;DHT22;28755;51.478;5.702;2024-01-25T00:57:40;8.50;99.90
43151;DHT22;28755;51.478;5.702;2024-01-25T01:00:06;8.50;99.90
43151;DHT22;28755;51.478;5.702;2024-01-25T01:02:43;8.50;99.90
43151;DHT22;28755;51.478;5.702;2024-01-25T01:05:09;8.40;99.90
43151;DHT22;28755;51.478;5.702;2024-01-25T01:07:35;8.40;99.90
43151;DHT22;28755;51.478;5.702;2024-01-25T01:10:01;8.40;99.90
43151;DHT22;28755;51.478;5.702;2024-01-25T01:12:26;8.50;99.90
43151;DHT22;28755;51.478;5.702;2024-01-25T01:14:52;8.30;99.90
43151;DHT22;28755;51.478;5.702;2024-01-25T01:17:18;8.30;99.90
43151;DHT22;28755;51.478;5.702;2024-01-25T01:19:44;8.30;99.90
43151;DHT22;28755;51.478;5.702;2024-01-25T01:22:10;8.20;99.90
43151;DHT22;28755;51.478;5.702;2024-01-25T01:24:35;8.20;99.90
43151;DHT22;28755;51.478;5.702;2024-01-25T01:27:01;8.20;99.90
43151;DHT22;28755;51.478;5.702;2024-01-25T01:29:27;8.10;99.90
43151;DHT22;28755;51.478;5.702;2024-01-25T01:31:53;8.10;99.90
43151;DHT22;28755;51.478;5.702;2024-01-25T01:34:18;8.20;99.90
43151;DHT22;28755;51.478;5.702;2024-01-25T01:36:44;8.20;99.90
43151;DHT22;28755;51.478;5.702;2024-01-25T01:39:10;8.20;99.90
43151;DHT22;28755;51.478;5.702;2024-01-25T01:41:35;8.10;99.90
43151;DHT22;28755;51.478;5.702;2024-01-25T01:44:01;8.00;99.90
43151;DHT22;28755;51.478;5.702;2024-01-25T01:46:37;8.10;99.90
43151;DHT22;28755;51.478;5.702;2024-01-25T01:49:06;7.90;99.90
43151;DHT22;28755;51.478;5.702;2024-01-25T01:51:32;8.10;99.90
43151;DHT22;28755;51.478;5.702;2024-01-25T01:54:00;7.90;99.90
43151;DHT22;28755;51.478;5.702;2024-01-25T01:56:28;8.00;99.90
43151;DHT22;28755;51.478;5.702;2024-01-25T01:58:59;7.90;99.90
43151;DHT22;28755;51.478;5.702;2024-01-25T02:01:25;7.90;99.90
43151;DHT22;28755;51.478;5.702;2024-01-25T02:03:51;7.80;99.90
43151;DHT22;28755;51.478;5.702;2024-01-25T02:06:17;7.80;99.90
43151;DHT22;28755;51.478;5.702;2024-01-25T02:08:43;7.70;99.90
43151;DHT22;28755;51.478;5.702;2024-01-25T02:11:13;7.70;99.90
43151;DHT22;28755;51.478;5.702;2024-01-25T02:13:39;7.60;99.90
43151;DHT22;28755;51.478;5.702;2024-01-25T02:16:08;7.70;99.90
43151;DHT22;28755;51.478;5.702;2024-01-25T02:18:34;7.60;99.90
43151;DHT22;28755;51.478;5.702;2024-01-25T02:21:00;7.60;99.90
43151;DHT22;28755;51.478;5.702;2024-01-25T02:23:26;7.60;99.90
43151;DHT22;28755;51.478;5.702;2024-01-25T02:25:52;7.50;99.90
43151;DHT22;28755;51.478;5.702;2024-01-25T02:28:18;7.50;99.90
43151;DHT22;28755;51.478;5.702;2024-01-25T02:30:43;7.40;99.90
43151;DHT22;28755;51.478;5.702;2024-01-25T02:33:09;7.50;99.90
43151;DHT22;28755;51.478;5.702;2024-01-25T02:35:35;7.40;99.90
43151;DHT22;28755;51.478;5.702;2024-01-25T02:38:00;7.40;99.90
43151;DHT22;28755;51.478;5.702;2024-01-25T02:40:26;7.40;99.90
43151;DHT22;28755;51.478;5.702;2024-01-25T02:42:51;7.30;99.90
43151;DHT22;28755;51.478;5.702;2024-01-25T02:45:17;7.40;99.90
43151;DHT22;28755;51.478;5.702;2024-01-25T02:47:43;7.30;99.90
43151;DHT22;28755;51.478;5.702;2024-01-25T02:50:09;7.40;99.90
43151;DHT22;28755;51.478;5.702;2024-01-25T02:52:34;7.30;99.90
43151;DHT22;28755;51.478;5.702;2024-01-25T02:55:00;7.40;99.90
43151;DHT22;28755;51.478;5.702;2024-01-25T02:57:26;7.30;99.90
43151;DHT22;28755;51.478;5.702;2024-01-25T02:59:51;7.30;99.90
43151;DHT22;28755;51.478;5.702;2024-01-25T03:02:17;7.30;99.90
43151;DHT22;28755;51.478;5.702;2024-01-25T03:04:45;7.20;99.90
43151;DHT22;28755;51.478;5.702;2024-01-25T03:07:11;7.20;99.90
43151;DHT22;28755;51.478;5.702;2024-01-25T03:09:37;7.30;99.90
43151;DHT22;28755;51.478;5.702;2024-01-25T03:12:02;7.20;99.90
43151;DHT22;28755;51.478;5.702;2024-01-25T03:14:28;7.20;99.90
43151;DHT22;28755;51.478;5.702;2024-01-25T03:16:54;7.10;99.90
43151;DHT22;28755;51.478;5.702;2024-01-25T03:19:19;7.10;99.90
43151;DHT22;28755;51.478;5.702;2024-01-25T03:21:45;7.10;99.90
43151;DHT22;28755;51.478;5.702;2024-01-25T03:24:11;7.10;99.90
43151;DHT22;28755;51.478;5.702;2024-01-25T03:26:36;7.10;99.90
43151;DHT22;28755;51.478;5.702;2024-01-25T03:29:02;7.00;99.90
43151;DHT22;28755;51.478;5.702;2024-01-25T03:31:27;7.00;99.90
43151;DHT22;28755;51.478;5.702;2024-01-25T03:33:53;6.90;99.90
43151;DHT22;28755;51.478;5.702;2024-01-25T03:36:19;6.90;99.90
43151;DHT22;28755;51.478;5.702;2024-01-25T03:38:44;6.90;99.90
43151;DHT22;28755;51.478;5.702;2024-01-25T03:41:10;6.90;99.90
43151;DHT22;28755;51.478;5.702;2024-01-25T03:43:35;6.90;99.90
43151;DHT22;28755;51.478;5.702;2024-01-25T03:46:01;6.90;99.90
43151;DHT22;28755;51.478;5.702;2024-01-25T03:48:28;6.90;99.90
43151;DHT22;28755;51.478;5.702;2024-01-25T03:50:54;6.80;99.90
43151;DHT22;28755;51.478;5.702;2024-01-25T03:53:23;6.90;99.90
43151;DHT22;28755;51.478;5.702;2024-01-25T03:55:49;6.70;99.90
43151;DHT22;28755;51.478;5.702;2024-01-25T03:58:16;6.70;99.90
43151;DHT22;28755;51.478;5.702;2024-01-25T04:00:42;6.60;99.90
43151;DHT22;28755;51.478;5.702;2024-01-25T04:03:07;6.60;99.90
43151;DHT22;28755;51.478;5.702;2024-01-25T04:05:33;6.70;99.90
43151;DHT22;28755;51.478;5.702;2024-01-25T04:07:59;6.40;99.90
43151;DHT22;28755;51.478;5.702;2024-01-25T04:10:24;6.40;99.90
43151;DHT22;28755;51.478;5.702;2024-01-25T04:12:51;6.40;99.90
43151;DHT22;28755;51.478;5.702;2024-01-25T04:15:16;6.30;99.90
43151;DHT22;28755;51.478;5.702;2024-01-25T04:17:42;6.30;99.90
43151;DHT22;28755;51.478;5.702;2024-01-25T04:20:08;6.30;99.90
43151;DHT22;28755;51.478;5.702;2024-01-25T04:22:35;6.30;99.90
43151;DHT22;28755;51.478;5.702;2024-01-25T04:25:00;6.30;99.90
43151;DHT22;28755;51.478;5.702;2024-01-25T04:27:26;6.30;99.90
43151;DHT22;28755;51.478;5.702;2024-01-25T04:29:51;6.30;99.90
43151;DHT22;28755;51.478;5.702;2024-01-25T04:32:17;6.10;99.90
43151;DHT22;28755;51.478;5.702;2024-01-25T04:34:43;6.20;99.90
43151;DHT22;28755;51.478;5.702;2024-01-25T04:37:09;6.10;99.90
43151;DHT22;28755;51.478;5.702;2024-01-25T04:39:35;6.00;99.90
43151;DHT22;28755;51.478;5.702;2024-01-25T04:42:00;6.00;99.90
43151;DHT22;28755;51.478;5.702;2024-01-25T04:44:26;5.90;99.90
43151;DHT22;28755;51.478;5.702;2024-01-25T04:46:52;5.90;99.90
43151;DHT22;28755;51.478;5.702;2024-01-25T04:49:19;5.80;99.90
43151;DHT22;28755;51.478;5.702;2024-01-25T04:51:44;5.80;99.90
43151;DHT22;28755;51.478;5.702;2024-01-25T04:54:10;5.80;99.90
43151;DHT22;28755;51.478;5.702;2024-01-25T04:56:38;5.90;99.90
43151;DHT22;28755;51.478;5.702;2024-01-25T04:59:04;5.80;99.90
43151;DHT22;28755;51.478;5.702;2024-01-25T05:01:29;5.90;99.90
43151;DHT22;28755;51.478;5.702;2024-01-25T05:03:55;5.90;99.90
43151;DHT22;28755;51.478;5.702;2024-01-25T05:06:20;5.80;99.90
43151;DHT22;28755;51.478;5.702;2024-01-25T05:08:46;5.80;99.90
43151;DHT22;28755;51.478;5.702;2024-01-25T05:11:12;5.80;99.90
43151;DHT22;28755;51.478;5.702;2024-01-25T05:13:37;5.80;99.90
43151;DHT22;28755;51.478;5.702;2024-01-25T05:16:03;5.80;99.90
43151;DHT22;28755;51.478;5.702;2024-01-25T05:18:29;5.80;99.90
43151;DHT22;28755;51.478;5.702;2024-01-25T05:20:54;5.70;99.90
43151;DHT22;28755;51.478;5.702;2024-01-25T05:23:20;5.70;99.90
43151;DHT22;28755;51.478;5.702;2024-01-25T05:25:45;5.80;99.90
43151;DHT22;28755;51.478;5.702;2024-01-25T05:28:11;5.70;99.90
43151;DHT22;28755;51.478;5.702;2024-01-25T05:30:37;5.80;99.90
43151;DHT22;28755;51.478;5.702;2024-01-25T05:33:02;5.60;99.90
43151;DHT22;28755;51.478;5.702;2024-01-25T05:35:28;5.80;99.90
43151;DHT22;28755;51.478;5.702;2024-01-25T05:37:53;5.60;99.90
43151;DHT22;28755;51.478;5.702;2024-01-25T05:40:19;5.60;99.90
43151;DHT22;28755;51.478;5.702;2024-01-25T05:42:45;5.60;99.90
43151;DHT22;28755;51.478;5.702;2024-01-25T05:45:10;5.60;99.90
43151;DHT22;28755;51.478;5.702;2024-01-25T05:47:36;5.60;99.90
43151;DHT22;28755;51.478;5.702;2024-01-25T05:50:02;5.50;99.90
43151;DHT22;28755;51.478;5.702;2024-01-25T05:52:28;5.40;99.90
43151;DHT22;28755;51.478;5.702;2024-01-25T05:54:54;5.50;99.90
43151;DHT22;28755;51.478;5.702;2024-01-25T05:57:20;5.50;99.90
43151;DHT22;28755;51.478;5.702;2024-01-25T05:59:46;5.40;99.90
43151;DHT22;28755;51.478;5.702;2024-01-25T06:02:11;5.50;99.90
43151;DHT22;28755;51.478;5.702;2024-01-25T06:04:37;5.40;99.90
43151;DHT22;28755;51.478;5.702;2024-01-25T06:07:03;5.40;99.90
43151;DHT22;28755;51.478;5.702;2024-01-25T06:09:29;5.40;99.90
43151;DHT22;28755;51.478;5.702;2024-01-25T06:11:54;5.30;99.90
43151;DHT22;28755;51.478;5.702;2024-01-25T06:14:20;5.30;99.90
43151;DHT22;28755;51.478;5.702;2024-01-25T06:16:46;5.30;99.90
43151;DHT22;28755;51.478;5.702;2024-01-25T06:19:11;5.20;99.90
43151;DHT22;28755;51.478;5.702;2024-01-25T06:21:37;5.20;99.90
43151;DHT22;28755;51.478;5.702;2024-01-25T06:24:04;5.10;99.90
43151;DHT22;28755;51.478;5.702;2024-01-25T06:26:30;5.10;99.90
43151;DHT22;28755;51.478;5.702;2024-01-25T06:28:55;5.10;99.90
43151;DHT22;28755;51.478;5.702;2024-01-25T06:31:22;5.00;99.90
43151;DHT22;28755;51.478;5.702;2024-01-25T06:33:48;5.00;99.90
43151;DHT22;28755;51.478;5.702;2024-01-25T06:36:16;4.90;99.90
43151;DHT22;28755;51.478;5.702;2024-01-25T06:38:42;4.90;99.90
43151;DHT22;28755;51.478;5.702;2024-01-25T06:41:08;4.90;99.90
43151;DHT22;28755;51.478;5.702;2024-01-25T06:43:34;5.00;99.90
43151;DHT22;28755;51.478;5.702;2024-01-25T06:46:00;4.80;99.90
43151;DHT22;28755;51.478;5.702;2024-01-25T06:48:25;4.70;99.90
43151;DHT22;28755;51.478;5.702;2024-01-25T06:50:51;4.60;99.90
43151;DHT22;28755;51.478;5.702;2024-01-25T06:53:17;4.50;99.90
43151;DHT22;28755;51.478;5.702;2024-01-25T06:55:43;4.50;99.90
43151;DHT22;28755;51.478;5.702;2024-01-25T06:58:08;4.50;99.90
43151;DHT22;28755;51.478;5.702;2024-01-25T07:00:34;4.50;99.90
43151;DHT22;28755;51.478;5.702;2024-01-25T07:03:00;4.50;99.90
43151;DHT22;28755;51.478;5.702;2024-01-25T07:05:25;4.50;99.90
43151;DHT22;28755;51.478;5.702;2024-01-25T07:07:52;4.50;99.90
43151;DHT22;28755;51.478;5.702;2024-01-25T07:10:17;4.40;99.90
43151;DHT22;28755;51.478;5.702;2024-01-25T07:12:43;4.40;99.90
43151;DHT22;28755;51.478;5.702;2024-01-25T07:15:09;4.40;99.90
43151;DHT22;28755;51.478;5.702;2024-01-25T07:17:35;4.30;99.90
43151;DHT22;28755;51.478;5.702;2024-01-25T07:20:00;4.30;99.90
43151;DHT22;28755;51.478;5.702;2024-01-25T07:22:26;4.30;99.90
43151;DHT22;28755;51.478;5.702;2024-01-25T07:24:51;4.40;99.90
43151;DHT22;28755;51.478;5.702;2024-01-25T07:27:17;4.40;99.90
43151;DHT22;28755;51.478;5.702;2024-01-25T07:29:45;4.40;99.90
43151;DHT22;28755;51.478;5.702;2024-01-25T07:32:12;4.30;99.90
43151;DHT22;28755;51.478;5.702;2024-01-25T07:34:38;4.40;99.90
43151;DHT22;28755;51.478;5.702;2024-01-25T07:37:03;4.40;99.90
43151;DHT22;28755;51.478;5.702;2024-01-25T07:39:29;4.50;99.90
43151;DHT22;28755;51.478;5.702;2024-01-25T07:41:55;4.60;99.90
43151;DHT22;28755;51.478;5.702;2024-01-25T07:44:20;4.70;99.90
43151;DHT22;28755;51.478;5.702;2024-01-25T07:46:46;4.80;99.90
43151;DHT22;28755;51.478;5.702;2024-01-25T07:49:12;4.90;99.90
43151;DHT22;28755;51.478;5.702;2024-01-25T07:51:38;5.00;99.90
43151;DHT22;28755;51.478;5.702;2024-01-25T07:54:03;5.10;99.90
43151;DHT22;28755;51.478;5.702;2024-01-25T07:56:29;5.30;99.90
43151;DHT22;28755;51.478;5.702;2024-01-25T07:58:55;5.40;99.90
43151;DHT22;28755;51.478;5.702;2024-01-25T08:01:20;5.40;99.90
43151;DHT22;28755;51.478;5.702;2024-01-25T08:03:46;5.50;99.90
43151;DHT22;28755;51.478;5.702;2024-01-25T08:06:12;5.60;99.90
43151;DHT22;28755;51.478;5.702;2024-01-25T08:08:38;5.70;99.90
43151;DHT22;28755;51.478;5.702;2024-01-25T08:11:04;5.70;99.90
43151;DHT22;28755;51.478;5.702;2024-01-25T08:13:30;5.70;99.90
43151;DHT22;28755;51.478;5.702;2024-01-25T08:15:56;5.60;99.90
43151;DHT22;28755;51.478;5.702;2024-01-25T08:18:22;5.50;99.90
43151;DHT22;28755;51.478;5.702;2024-01-25T08:20:49;5.50;99.90
43151;DHT22;28755;51.478;5.702;2024-01-25T08:23:15;5.60;99.90
43151;DHT22;28755;51.478;5.702;2024-01-25T08:25:41;5.60;99.90
43151;DHT22;28755;51.478;5.702;2024-01-25T08:28:07;5.90;99.90
43151;DHT22;28755;51.478;5.702;2024-01-25T08:30:33;5.60;99.90
43151;DHT22;28755;51.478;5.702;2024-01-25T08:32:59;5.60;99.90
43151;DHT22;28755;51.478;5.702;2024-01-25T08:35:24;5.80;99.90
43151;DHT22;28755;51.478;5.702;2024-01-25T08:37:50;5.80;99.90
43151;DHT22;28755;51.478;5.702;2024-01-25T08:40:16;5.90;99.90
43151;DHT22;28755;51.478;5.702;2024-01-25T08:42:42;6.00;99.90
43151;DHT22;28755;51.478;5.702;2024-01-25T08:45:07;6.10;99.90
43151;DHT22;28755;51.478;5.702;2024-01-25T08:47:37;6.00;99.90
43151;DHT22;28755;51.478;5.702;2024-01-25T08:50:03;6.20;99.90
43151;DHT22;28755;51.478;5.702;2024-01-25T08:52:29;6.10;99.90
43151;DHT22;28755;51.478;5.702;2024-01-25T08:54:54;6.20;99.90
43151;DHT22;28755;51.478;5.702;2024-01-25T08:57:20;6.40;99.90
43151;DHT22;28755;51.478;5.702;2024-01-25T08:59:46;6.20;99.90
43151;DHT22;28755;51.478;5.702;2024-01-25T09:02:11;6.30;99.90
43151;DHT22;28755;51.478;5.702;2024-01-25T09:04:37;6.20;99.90
43151;DHT22;28755;51.478;5.702;2024-01-25T09:07:03;6.10;99.90
43151;DHT22;28755;51.478;5.702;2024-01-25T09:09:29;6.20;99.90
43151;DHT22;28755;51.478;5.702;2024-01-25T09:11:55;6.10;99.90
43151;DHT22;28755;51.478;5.702;2024-01-25T09:14:20;6.10;99.90
43151;DHT22;28755;51.478;5.702;2024-01-25T09:16:46;6.00;99.90
43151;DHT22;28755;51.478;5.702;2024-01-25T09:19:12;6.00;99.90
43151;DHT22;28755;51.478;5.702;2024-01-25T09:21:40;6.00;99.90
43151;DHT22;28755;51.478;5.702;2024-01-25T09:24:06;6.10;99.90
43151;DHT22;28755;51.478;5.702;2024-01-25T09:26:33;6.00;99.90
43151;DHT22;28755;51.478;5.702;2024-01-25T09:28:58;6.10;99.90
43151;DHT22;28755;51.478;5.702;2024-01-25T09:31:24;6.20;99.90
43151;DHT22;28755;51.478;5.702;2024-01-25T09:33:49;6.40;99.90
43151;DHT22;28755;51.478;5.702;2024-01-25T09:36:16;6.70;99.90
43151;DHT22;28755;51.478;5.702;2024-01-25T09:38:42;6.50;99.90
43151;DHT22;28755;51.478;5.702;2024-01-25T09:41:08;6.60;99.90
43151;DHT22;28755;51.478;5.702;2024-01-25T09:43:34;6.60;99.90
43151;DHT22;28755;51.478;5.702;2024-01-25T09:46:01;6.80;99.90
43151;DHT22;28755;51.478;5.702;2024-01-25T09:48:27;6.90;99.90
43151;DHT22;28755;51.478;5.702;2024-01-25T09:50:55;6.90;99.90
43151;DHT22;28755;51.478;5.702;2024-01-25T09:53:22;7.00;99.90
43151;DHT22;28755;51.478;5.702;2024-01-25T09:56:07;7.40;99.90
43151;DHT22;28755;51.478;5.702;2024-01-25T09:58:43;7.70;99.90
43151;DHT22;28755;51.478;5.702;2024-01-25T10:01:15;7.50;99.90
43151;DHT22;28755;51.478;5.702;2024-01-25T10:06:11;7.30;99.90
43151;DHT22;28755;51.478;5.702;2024-01-25T10:08:37;7.50;99.90
43151;DHT22;28755;51.478;5.702;2024-01-25T10:11:03;7.80;99.90
43151;DHT22;28755;51.478;5.702;2024-01-25T10:13:29;7.60;99.90
43151;DHT22;28755;51.478;5.702;2024-01-25T10:15:55;7.60;99.90
43151;DHT22;28755;51.478;5.702;2024-01-25T10:18:27;7.70;99.90
43151;DHT22;28755;51.478;5.702;2024-01-25T10:20:56;7.70;99.90
43151;DHT22;28755;51.478;5.702;2024-01-25T10:23:21;7.60;99.90
43151;DHT22;28755;51.478;5.702;2024-01-25T10:25:48;7.80;99.90
43151;DHT22;28755;51.478;5.702;2024-01-25T10:28:15;7.80;99.90
43151;DHT22;28755;51.478;5.702;2024-01-25T10:30:41;7.80;99.90
43151;DHT22;28755;51.478;5.702;2024-01-25T10:33:08;7.80;99.90
43151;DHT22;28755;51.478;5.702;2024-01-25T10:35:35;8.10;99.90
43151;DHT22;28755;51.478;5.702;2024-01-25T10:38:02;8.30;99.90
43151;DHT22;28755;51.478;5.702;2024-01-25T10:40:29;8.40;99.90
43151;DHT22;28755;51.478;5.702;2024-01-25T10:42:54;8.80;99.90
43151;DHT22;28755;51.478;5.702;2024-01-25T10:45:20;9.10;99.90
43151;DHT22;28755;51.478;5.702;2024-01-25T10:47:48;9.20;99.90
43151;DHT22;28755;51.478;5.702;2024-01-25T10:50:14;9.20;99.90
43151;DHT22;28755;51.478;5.702;2024-01-25T10:52:41;9.20;99.90
43151;DHT22;28755;51.478;5.702;2024-01-25T10:55:07;9.30;99.90
43151;DHT22;28755;51.478;5.702;2024-01-25T10:57:42;9.70;99.90
43151;DHT22;28755;51.478;5.702;2024-01-25T11:00:10;9.70;99.90
43151;DHT22;28755;51.478;5.702;2024-01-25T11:02:37;9.70;99.90
43151;DHT22;28755;51.478;5.702;2024-01-25T11:05:08;9.80;99.90
43151;DHT22;28755;51.478;5.702;2024-01-25T11:07:48;9.70;99.90
43151;DHT22;28755;51.478;5.702;2024-01-25T11:10:23;9.50;99.90
43151;DHT22;28755;51.478;5.702;2024-01-25T11:12:55;9.40;99.90
43151;DHT22;28755;51.478;5.702;2024-01-25T11:15:22;9.50;99.90
43151;DHT22;28755;51.478;5.702;2024-01-25T11:17:56;9.40;99.90
43151;DHT22;28755;51.478;5.702;2024-01-25T11:20:23;9.80;99.90
43151;DHT22;28755;51.478;5.702;2024-01-25T11:22:55;9.60;99.90
43151;DHT22;28755;51.478;5.702;2024-01-25T11:25:21;9.80;99.90
43151;DHT22;28755;51.478;5.702;2024-01-25T11:27:50;9.70;99.90
43151;DHT22;28755;51.478;5.702;2024-01-25T11:30:18;9.50;99.90
43151;DHT22;28755;51.478;5.702;2024-01-25T11:32:46;9.30;99.90
43151;DHT22;28755;51.478;5.702;2024-01-25T11:35:12;9.00;99.90
43151;DHT22;28755;51.478;5.702;2024-01-25T11:37:42;9.00;99.90
43151;DHT22;28755;51.478;5.702;2024-01-25T11:40:09;9.00;99.90
43151;DHT22;28755;51.478;5.702;2024-01-25T11:42:35;9.00;99.90
43151;DHT22;28755;51.478;5.702;2024-01-25T11:45:00;9.10;99.90
43151;DHT22;28755;51.478;5.702;2024-01-25T11:47:26;9.20;99.90
43151;DHT22;28755;51.478;5.702;2024-01-25T11:49:51;9.10;99.90
43151;DHT22;28755;51.478;5.702;2024-01-25T11:52:17;9.20;99.90
43151;DHT22;28755;51.478;5.702;2024-01-25T11:54:42;9.40;99.90
43151;DHT22;28755;51.478;5.702;2024-01-25T11:57:08;9.30;99.90
43151;DHT22;28755;51.478;5.702;2024-01-25T11:59:34;9.20;99.90
43151;DHT22;28755;51.478;5.702;2024-01-25T12:02:00;9.10;99.90
43151;DHT22;28755;51.478;5.702;2024-01-25T12:04:27;9.00;99.90
43151;DHT22;28755;51.478;5.702;2024-01-25T12:06:53;9.10;99.90
43151;DHT22;28755;51.478;5.702;2024-01-25T12:09:18;9.10;99.90
43151;DHT22;28755;51.478;5.702;2024-01-25T12:11:44;9.10;99.90
43151;DHT22;28755;51.478;5.702;2024-01-25T12:14:15;8.90;99.90
43151;DHT22;28755;51.478;5.702;2024-01-25T12:16:41;8.80;99.90
43151;DHT22;28755;51.478;5.702;2024-01-25T12:19:07;8.90;99.90
43151;DHT22;28755;51.478;5.702;2024-01-25T12:21:33;8.90;99.90
43151;DHT22;28755;51.478;5.702;2024-01-25T12:23:59;9.00;99.90
43151;DHT22;28755;51.478;5.702;2024-01-25T12:26:25;9.00;99.90
43151;DHT22;28755;51.478;5.702;2024-01-25T12:28:50;9.10;99.90
43151;DHT22;28755;51.478;5.702;2024-01-25T12:31:16;9.10;99.90
43151;DHT22;28755;51.478;5.702;2024-01-25T12:33:43;9.00;99.90
43151;DHT22;28755;51.478;5.702;2024-01-25T12:36:09;8.90;99.90
43151;DHT22;28755;51.478;5.702;2024-01-25T12:38:34;9.00;99.90
43151;DHT22;28755;51.478;5.702;2024-01-25T12:41:01;9.00;99.90
43151;DHT22;28755;51.478;5.702;2024-01-25T12:43:26;8.90;99.90
43151;DHT22;28755;51.478;5.702;2024-01-25T12:45:52;9.10;99.90
43151;DHT22;28755;51.478;5.702;2024-01-25T12:48:17;9.20;99.90
43151;DHT22;28755;51.478;5.702;2024-01-25T12:50:43;9.10;99.90
43151;DHT22;28755;51.478;5.702;2024-01-25T12:53:12;9.20;99.90
43151;DHT22;28755;51.478;5.702;2024-01-25T12:55:39;9.20;99.90
43151;DHT22;28755;51.478;5.702;2024-01-25T12:58:05;9.30;99.90
43151;DHT22;28755;51.478;5.702;2024-01-25T13:00:31;9.30;99.90
43151;DHT22;28755;51.478;5.702;2024-01-25T13:02:56;9.20;99.90
43151;DHT22;28755;51.478;5.702;2024-01-25T13:05:22;9.30;99.90
43151;DHT22;28755;51.478;5.702;2024-01-25T13:07:49;9.30;99.90
43151;DHT22;28755;51.478;5.702;2024-01-25T13:10:14;9.30;99.90
43151;DHT22;28755;51.478;5.702;2024-01-25T13:12:40;9.20;99.90
43151;DHT22;28755;51.478;5.702;2024-01-25T13:15:06;9.30;99.90
43151;DHT22;28755;51.478;5.702;2024-01-25T13:17:34;9.20;99.90
43151;DHT22;28755;51.478;5.702;2024-01-25T13:20:01;9.20;99.90
43151;DHT22;28755;51.478;5.702;2024-01-25T13:22:27;9.10;99.90
43151;DHT22;28755;51.478;5.702;2024-01-25T13:24:55;9.00;99.90
43151;DHT22;28755;51.478;5.702;2024-01-25T13:27:20;9.00;99.90
43151;DHT22;28755;51.478;5.702;2024-01-25T13:29:46;8.90;99.90
43151;DHT22;28755;51.478;5.702;2024-01-25T13:32:12;8.90;99.90
43151;DHT22;28755;51.478;5.702;2024-01-25T13:34:37;9.00;99.90
43151;DHT22;28755;51.478;5.702;2024-01-25T13:37:03;8.90;99.90
43151;DHT22;28755;51.478;5.702;2024-01-25T13:39:28;8.90;99.90
43151;DHT22;28755;51.478;5.702;2024-01-25T13:41:54;8.90;99.90
43151;DHT22;28755;51.478;5.702;2024-01-25T13:44:21;8.90;99.90
43151;DHT22;28755;51.478;5.702;2024-01-25T13:46:47;9.00;99.90
43151;DHT22;28755;51.478;5.702;2024-01-25T13:49:13;8.90;99.90
43151;DHT22;28755;51.478;5.702;2024-01-25T13:51:38;8.90;99.90
43151;DHT22;28755;51.478;5.702;2024-01-25T13:54:04;8.90;99.90
43151;DHT22;28755;51.478;5.702;2024-01-25T13:56:29;8.90;99.90
43151;DHT22;28755;51.478;5.702;2024-01-25T13:58:55;9.00;99.90
43151;DHT22;28755;51.478;5.702;2024-01-25T14:01:20;8.80;99.90
43151;DHT22;28755;51.478;5.702;2024-01-25T14:03:46;8.80;99.90
43151;DHT22;28755;51.478;5.702;2024-01-25T14:06:12;8.80;99.90
43151;DHT22;28755;51.478;5.702;2024-01-25T14:08:37;8.80;99.90
43151;DHT22;28755;51.478;5.702;2024-01-25T14:11:03;8.90;99.90
43151;DHT22;28755;51.478;5.702;2024-01-25T14:13:31;8.80;99.90
43151;DHT22;28755;51.478;5.702;2024-01-25T14:15:57;8.90;99.90
43151;DHT22;28755;51.478;5.702;2024-01-25T14:18:24;9.00;99.90
43151;DHT22;28755;51.478;5.702;2024-01-25T14:20:50;8.90;99.90
43151;DHT22;28755;51.478;5.702;2024-01-25T14:23:15;9.00;99.90
43151;DHT22;28755;51.478;5.702;2024-01-25T14:25:41;9.00;99.90
43151;DHT22;28755;51.478;5.702;2024-01-25T14:28:06;9.00;99.90
43151;DHT22;28755;51.478;5.702;2024-01-25T14:30:32;9.10;99.90
43151;DHT22;28755;51.478;5.702;2024-01-25T14:32:57;9.00;99.90
43151;DHT22;28755;51.478;5.702;2024-01-25T14:35:23;9.00;99.90
43151;DHT22;28755;51.478;5.702;2024-01-25T14:37:54;9.00;99.90
43151;DHT22;28755;51.478;5.702;2024-01-25T14:40:20;9.00;99.90
43151;DHT22;28755;51.478;5.702;2024-01-25T14:42:45;9.20;99.90
43151;DHT22;28755;51.478;5.702;2024-01-25T14:45:11;9.10;99.90
43151;DHT22;28755;51.478;5.702;2024-01-25T14:47:36;9.10;99.90
43151;DHT22;28755;51.478;5.702;2024-01-25T14:50:02;9.10;99.90
43151;DHT22;28755;51.478;5.702;2024-01-25T14:52:28;9.10;99.90
43151;DHT22;28755;51.478;5.702;2024-01-25T14:54:53;9.10;99.90
43151;DHT22;28755;51.478;5.702;2024-01-25T14:57:19;9.10;99.90
43151;DHT22;28755;51.478;5.702;2024-01-25T14:59:45;9.00;99.90
43151;DHT22;28755;51.478;5.702;2024-01-25T15:02:11;9.00;99.90
43151;DHT22;28755;51.478;5.702;2024-01-25T15:04:37;9.00;99.90
43151;DHT22;28755;51.478;5.702;2024-01-25T15:07:03;9.00;99.90
43151;DHT22;28755;51.478;5.702;2024-01-25T15:09:29;8.90;99.90
43151;DHT22;28755;51.478;5.702;2024-01-25T15:11:54;8.90;99.90
43151;DHT22;28755;51.478;5.702;2024-01-25T15:14:20;8.80;99.90
43151;DHT22;28755;51.478;5.702;2024-01-25T15:16:45;8.80;99.90
43151;DHT22;28755;51.478;5.702;2024-01-25T15:19:11;8.80;99.90
43151;DHT22;28755;51.478;5.702;2024-01-25T15:21:37;8.80;99.90
43151;DHT22;28755;51.478;5.702;2024-01-25T15:24:03;8.70;99.90
43151;DHT22;28755;51.478;5.702;2024-01-25T15:26:28;8.80;99.90
43151;DHT22;28755;51.478;5.702;2024-01-25T15:28:54;9.00;99.90
43151;DHT22;28755;51.478;5.702;2024-01-25T15:31:19;8.80;99.90
43151;DHT22;28755;51.478;5.702;2024-01-25T15:33:45;8.70;99.90
43151;DHT22;28755;51.478;5.702;2024-01-25T15:36:11;8.80;99.90
43151;DHT22;28755;51.478;5.702;2024-01-25T15:38:36;8.80;99.90
43151;DHT22;28755;51.478;5.702;2024-01-25T15:41:02;8.60;99.90